Time;durP1;ratioP1;P1;durP2;ratioP2;P2;SDS_P1;SDS_P2;PMS_P1;PMS_P2;Temp;Humidity;BMP_temperature;BMP_pressure;BME280_temperature;BME280_humidity;BME280_pressure;Samples;Min_cycle;Max_cycle;Signal;HPM_P1;HPM_P2
2023/03/25 00:00:12;;;;;;;;;;;11.60;99.90;;;;;;4920256;29;20477;-77
2023/03/25 00:02:37;;;;;;;1860.00;775.47;;;11.50;99.90;;;;;;4913061;29;20356;-77
2023/03/25 00:05:04;;;;;;;1999.90;270.27;;;11.70;99.90;;;;;;4910439;29;20051;-77
2023/03/25 00:07:30;;;;;;;1999.90;713.92;;;11.60;99.90;;;;;;4913813;29;20123;-76
2023/03/25 00:09:56;;;;;;;1999.90;669.95;;;10.70;29.60;;;;;;4912433;29;20148;-77
2023/03/25 00:12:21;;;;;;;1999.90;678.92;;;11.30;1.00;;;;;;4912302;29;20048;-77
2023/03/25 00:14:53;;;;;;;1999.90;562.63;;;11.30;99.90;;;;;;4897831;29;20135;-78
2023/03/25 00:17:25;;;;;;;1999.90;634.92;;;11.20;56.60;;;;;;4915989;29;20058;-77
2023/03/25 00:19:51;;;;;;;1999.90;577.28;;;11.30;99.90;;;;;;4914323;29;20056;-79
2023/03/25 00:22:17;;;;;;;1999.90;509.27;;;11.40;99.90;;;;;;4897298;29;20048;-77
2023/03/25 00:24:43;;;;;;;1999.90;804.50;;;11.20;99.90;;;;;;4916379;29;20055;-77
2023/03/25 00:27:09;;;;;;;1999.90;999.90;;;11.10;99.90;;;;;;4899901;29;20040;-77
2023/03/25 00:29:35;;;;;;;1999.90;650.15;;;11.20;99.90;;;;;;4885284;29;20107;-77
2023/03/25 00:32:00;;;;;;;1991.07;634.15;;;11.60;99.90;;;;;;4914432;29;20060;-77
2023/03/25 00:34:26;;;;;;;1999.90;363.00;;;11.30;1.00;;;;;;4918200;29;20048;-77
2023/03/25 00:36:52;;;;;;;1999.90;999.90;;;11.30;1.00;;;;;;4915722;29;20044;-77
2023/03/25 00:39:18;;;;;;;1999.90;800.30;;;11.30;99.90;;;;;;4917859;29;20049;-79
2023/03/25 00:41:43;;;;;;;1999.90;541.17;;;11.30;1.00;;;;;;4914811;29;20052;-79
2023/03/25 00:44:13;;;;;;;1999.90;870.55;;;11.20;99.90;;;;;;4917344;29;20048;-78
2023/03/25 00:46:39;;;;;;;1999.90;640.08;;;10.90;99.90;;;;;;4886825;29;20048;-78
2023/03/25 00:49:08;;;;;;;1999.90;483.30;;;10.90;99.90;;;;;;4915662;29;20055;-79
2023/03/25 00:51:34;;;;;;;1999.90;999.90;;;11.10;99.90;;;;;;4916093;29;20052;-82
2023/03/25 00:54:03;;;;;;;1999.90;845.85;;;10.90;99.90;;;;;;4917316;29;20123;-82
2023/03/25 00:56:30;;;;;;;1999.90;680.45;;;11.10;99.90;;;;;;4916155;29;20131;-82
2023/03/25 00:58:56;;;;;;;1999.90;885.78;;;11.20;99.90;;;;;;4915395;29;20059;-83
2023/03/25 01:01:26;;;;;;;1999.90;681.03;;;10.20;99.90;;;;;;4915350;29;20048;-82
2023/03/25 01:03:58;;;;;;;1999.90;866.17;;;10.50;99.90;;;;;;4916860;29;20048;-84
2023/03/25 01:06:32;;;;;;;1999.90;739.40;;;10.20;99.90;;;;;;4917120;29;20052;-83
2023/03/25 01:08:59;;;;;;;1999.90;568.88;;;10.30;99.90;;;;;;4901962;29;20052;-85
2023/03/25 01:11:33;;;;;;;1999.90;687.15;;;11.30;99.90;;;;;;4900496;29;20059;-85
2023/03/25 01:13:59;;;;;;;1999.90;548.20;;;10.40;99.90;;;;;;4884793;29;20127;-85
2023/03/25 01:16:28;;;;;;;1999.90;999.90;;;11.00;99.90;;;;;;4917195;29;20055;-87
2023/03/25 01:18:55;;;;;;;1999.90;687.80;;;10.40;99.90;;;;;;4917429;29;20052;-88
2023/03/25 01:21:20;;;;;;;1999.90;378.10;;;11.10;99.90;;;;;;4900576;29;20466;-88
2023/03/25 01:23:46;;;;;;;1999.90;465.20;;;11.40;99.90;;;;;;4899765;29;20135;-87
2023/03/25 01:26:15;;;;;;;1999.90;495.88;;;11.30;99.90;;;;;;4916057;29;20044;-87
2023/03/25 01:28:42;;;;;;;1999.90;836.20;;;10.60;99.90;;;;;;4917433;29;20048;-88
2023/03/25 01:31:10;;;;;;;1999.90;595.55;;;8.70;99.90;;;;;;4913812;29;20044;-89
2023/03/25 01:33:37;;;;;;;1999.90;999.90;;;;;;;;;;4900372;29;20568;-86
2023/03/25 01:36:03;;;;;;;1999.90;999.90;;;10.30;99.90;;;;;;4914524;29;20043;-87
2023/03/25 01:38:29;;;;;;;1999.90;628.78;;;;;;;;;;4901132;29;20134;-88
2023/03/25 01:40:56;;;;;;;1999.90;999.90;;;10.90;99.90;;;;;;4897400;29;20053;-87
2023/03/25 01:43:26;;;;;;;1999.90;999.90;;;11.80;99.90;;;;;;4914703;29;20564;-87
2023/03/25 01:45:52;;;;;;;1999.90;789.95;;;;;;;;;;4913607;29;20128;-87
2023/03/25 01:48:38;;;;;;;1999.90;999.90;;;15.00;99.90;;;;;;4916224;29;20111;-88
2023/03/25 01:51:20;;;;;;;1999.90;999.90;;;11.50;99.90;;;;;;4896078;29;20136;-88
2023/03/25 01:53:47;;;;;;;1999.90;999.90;;;11.20;99.90;;;;;;4900023;29;20056;-87
2023/03/25 01:56:19;;;;;;;1999.90;442.27;;;11.50;99.90;;;;;;4899860;29;20257;-86
2023/03/25 01:58:45;;;;;;;1999.90;631.65;;;11.40;99.90;;;;;;4932356;29;20131;-87
2023/03/25 02:01:18;;;;;;;1999.90;999.90;;;10.30;99.90;;;;;;4899612;29;20071;-87
2023/03/25 02:03:44;;;;;;;1999.90;999.90;;;10.20;99.90;;;;;;4916704;29;20497;-92
2023/03/25 02:06:18;;;;;;;1999.90;813.05;;;11.40;99.90;;;;;;4914354;29;20043;-87
2023/03/25 02:08:44;;;;;;;1999.90;399.48;;;10.20;99.90;;;;;;4910862;29;20099;-86
2023/03/25 02:11:10;;;;;;;1999.90;999.90;;;10.70;99.90;;;;;;4915073;29;20044;-87
2023/03/25 02:13:39;;;;;;;1999.90;999.90;;;11.90;99.90;;;;;;4915727;29;20401;-86
2023/03/25 02:16:32;;;;;;;1999.90;625.00;;;11.40;99.90;;;;;;4915050;29;20044;-87
2023/03/25 02:19:04;;;;;;;1999.90;999.90;;;10.90;99.90;;;;;;4915643;29;20160;-87
2023/03/25 02:21:45;;;;;;;1999.90;999.90;;;10.50;99.90;;;;;;4914478;29;20047;-86
2023/03/25 02:24:22;;;;;;;1999.90;396.73;;;10.70;99.90;;;;;;4899817;29;20137;-87
2023/03/25 02:26:55;;;;;;;1999.90;999.90;;;;;;;;;;4897055;29;20107;-86
2023/03/25 02:29:48;;;;;;;1999.90;643.97;;;10.50;99.90;;;;;;4900193;29;20111;-88
2023/03/25 02:32:32;;;;;;;1999.90;999.90;;;10.50;99.90;;;;;;4896657;29;20067;-86
2023/03/25 02:34:58;;;;;;;1999.90;999.90;;;11.90;99.90;;;;;;4898122;29;20729;-87
2023/03/25 02:37:45;;;;;;;1999.90;999.90;;;10.40;99.90;;;;;;4898909;29;20496;-88
2023/03/25 02:40:36;;;;;;;1999.90;305.90;;;10.10;99.90;;;;;;4899196;29;20059;-87
2023/03/25 02:43:30;;;;;;;1999.90;371.30;;;10.90;99.90;;;;;;4915619;29;20044;-87
2023/03/25 02:46:01;;;;;;;1999.90;999.90;;;11.10;99.90;;;;;;4915271;29;20071;-87
2023/03/25 02:48:45;;;;;;;1999.90;797.92;;;9.50;99.90;;;;;;4916032;29;20055;-87
2023/03/25 02:51:16;;;;;;;1999.90;848.20;;;10.60;99.90;;;;;;4894672;29;20091;-88
2023/03/25 02:53:45;;;;;;;1999.90;840.00;;;10.30;99.90;;;;;;4909718;29;20056;-88
2023/03/25 02:56:15;;;;;;;1999.90;646.80;;;8.40;99.90;;;;;;4911989;29;20083;-87
2023/03/25 02:58:44;;;;;;;1999.90;999.90;;;11.10;99.90;;;;;;4916339;29;20079;-88
2023/03/25 03:01:13;;;;;;;1999.90;830.75;;;10.30;99.90;;;;;;4916193;29;20095;-88
2023/03/25 03:03:40;;;;;;;1999.90;870.38;;;;;;;;;;4900179;29;20091;-89
2023/03/25 03:06:06;;;;;;;1999.90;663.28;;;10.60;99.90;;;;;;4914868;29;20075;-89
2023/03/25 03:08:41;;;;;;;1999.90;803.40;;;11.20;99.90;;;;;;4915216;29;20072;-88
2023/03/25 03:11:21;;;;;;;1999.90;999.90;;;11.20;99.90;;;;;;4899478;29;20103;-87
2023/03/25 03:13:53;;;;;;;1999.90;999.90;;;11.10;99.90;;;;;;4901687;29;20100;-88
2023/03/25 03:16:31;;;;;;;1999.90;823.83;;;10.40;99.90;;;;;;4914794;29;20052;-88
2023/03/25 03:19:22;;;;;;;1999.90;776.07;;;10.20;99.90;;;;;;4915640;29;20059;-87
2023/03/25 03:21:52;;;;;;;1999.90;199.52;;;11.20;99.90;;;;;;4905544;29;20814;-88
2023/03/25 03:24:35;;;;;;;1999.90;999.90;;;11.20;99.90;;;;;;4914089;29;20135;-91
2023/03/25 03:27:22;;;;;;;1999.90;999.90;;;11.30;99.90;;;;;;4915539;29;20127;-88
2023/03/25 03:29:56;;;;;;;1999.90;999.90;;;10.50;99.90;;;;;;4899605;29;20056;-88
2023/03/25 03:32:22;;;;;;;1999.90;814.25;;;9.40;99.90;;;;;;4928342;29;20448;-88
2023/03/25 03:34:50;;;;;;;1999.90;685.78;;;12.90;99.90;;;;;;4913284;29;20055;-90
2023/03/25 03:37:28;;;;;;;1999.90;999.90;;;10.40;99.90;;;;;;4895985;29;20056;-90
2023/03/25 03:39:56;;;;;;;1999.90;776.20;;;10.50;99.90;;;;;;4914834;29;20072;-90
2023/03/25 03:42:33;;;;;;;1999.90;580.60;;;10.50;99.90;;;;;;4912061;29;20308;-88
2023/03/25 03:45:07;;;;;;;1999.90;477.30;;;9.70;99.90;;;;;;4911420;29;20452;-89
2023/03/25 03:47:41;;;;;;;1999.90;154.55;;;10.50;99.90;;;;;;4898306;29;20063;-89
2023/03/25 03:50:19;;;;;;;1999.90;999.90;;;10.90;99.90;;;;;;4894978;29;20068;-89
2023/03/25 03:53:03;;;;;;;1999.90;722.10;;;11.00;99.90;;;;;;4908178;29;20584;-88
2023/03/25 03:55:56;;;;;;;1999.90;597.50;;;10.20;99.90;;;;;;4908353;29;20312;-89
2023/03/25 03:58:29;;;;;;;1999.90;792.00;;;10.10;99.90;;;;;;4908503;29;20040;-88
2023/03/25 04:01:08;;;;;;;1999.90;822.75;;;10.30;99.90;;;;;;4918275;29;20048;-89
2023/03/25 04:03:52;;;;;;;1999.90;999.90;;;10.20;99.90;;;;;;4898886;29;20056;-88
2023/03/25 04:06:37;;;;;;;1999.90;999.90;;;11.30;99.90;;;;;;4911763;29;20070;-89
2023/03/25 04:09:26;;;;;;;1999.90;435.20;;;10.30;99.90;;;;;;4914872;29;20111;-89
2023/03/25 04:12:13;;;;;;;1999.90;509.52;;;10.10;99.90;;;;;;4914165;29;20040;-89
2023/03/25 04:14:39;;;;;;;1999.90;254.43;;;11.10;99.90;;;;;;4899511;29;20087;-90
2023/03/25 04:17:05;;;;;;;1999.90;612.45;;;10.50;99.90;;;;;;4913856;29;20091;-88
2023/03/25 04:19:34;;;;;;;1999.90;999.90;;;11.00;99.90;;;;;;4917057;29;20501;-89
2023/03/25 04:22:01;;;;;;;1999.90;276.02;;;10.30;99.90;;;;;;4900135;29;20044;-90
2023/03/25 04:24:30;;;;;;;1999.90;807.17;;;8.80;99.90;;;;;;4901054;29;20453;-88
2023/03/25 04:27:03;;;;;;;1999.90;281.13;;;10.10;99.90;;;;;;4915473;29;20047;-91
2023/03/25 04:29:32;;;;;;;1999.90;999.90;;;11.30;99.90;;;;;;4900647;29;20438;-88
2023/03/25 04:32:00;;;;;;;1999.90;427.92;;;10.70;99.90;;;;;;4915968;29;20040;-88
2023/03/25 04:34:26;;;;;;;1999.90;585.38;;;10.50;99.90;;;;;;4914997;29;20115;-90
2023/03/25 04:36:53;;;;;;;1999.90;252.48;;;10.30;99.90;;;;;;4915994;29;20040;-89
2023/03/25 04:39:22;;;;;;;1999.90;999.90;;;12.30;99.90;;;;;;4900105;29;20063;-91
2023/03/25 04:41:52;;;;;;;1999.90;711.90;;;9.70;99.90;;;;;;4914200;29;20102;-89
2023/03/25 04:44:20;;;;;;;1999.90;999.90;;;10.90;99.90;;;;;;4917154;29;20044;-89
2023/03/25 04:46:47;;;;;;;1999.90;667.00;;;11.10;99.90;;;;;;4915818;29;20052;-87
2023/03/25 04:49:23;;;;;;;1999.90;999.90;;;11.20;99.90;;;;;;4916103;29;20100;-91
2023/03/25 04:51:51;;;;;;;1804.90;561.35;;;10.50;99.90;;;;;;4912932;29;20060;-89
2023/03/25 04:54:18;;;;;;;1434.47;331.70;;;10.70;99.90;;;;;;4917019;29;20079;-88
2023/03/25 04:56:46;;;;;;;1999.90;999.90;;;10.30;99.90;;;;;;4913000;29;20055;-89
2023/03/25 04:59:12;;;;;;;;;;;10.40;99.90;;;;;;4916913;29;20052;-92
2023/03/25 05:01:41;;;;;;;1999.90;796.03;;;10.70;99.90;;;;;;4900694;29;19930;-95
2023/03/25 05:04:11;;;;;;;1999.90;365.40;;;11.00;99.90;;;;;;4901831;29;20126;-90
2023/03/25 05:06:45;;;;;;;1999.90;999.90;;;10.40;99.90;;;;;;4917200;29;20091;-90
2023/03/25 05:09:18;;;;;;;1949.72;216.32;;;11.00;99.90;;;;;;4914840;29;20048;-90
2023/03/25 05:11:45;;;;;;;1999.90;999.90;;;10.80;99.90;;;;;;4900555;29;20409;-89
2023/03/25 05:14:12;;;;;;;1999.90;999.90;;;10.90;99.90;;;;;;4901818;29;20059;-92
2023/03/25 05:16:38;;;;;;;1999.90;268.70;;;10.40;99.90;;;;;;4915880;29;20397;-90
2023/03/25 05:19:05;;;;;;;1999.90;999.90;;;11.10;99.90;;;;;;4914768;29;20044;-90
2023/03/25 05:21:34;;;;;;;1999.90;648.15;;;10.80;99.90;;;;;;4898079;29;20044;-90
2023/03/25 05:24:01;;;;;;;1636.43;764.42;;;10.30;99.90;;;;;;4898814;29;20040;-90
2023/03/25 05:26:33;;;;;;;1461.70;117.18;;;10.40;99.90;;;;;;4913690;29;20052;-91
2023/03/25 05:29:12;;;;;;;1999.90;999.90;;;11.80;99.90;;;;;;4900478;29;20123;-91
2023/03/25 05:31:47;;;;;;;1999.90;999.90;;;10.70;99.90;;;;;;4899818;29;20110;-90
2023/03/25 05:34:13;;;;;;;1999.90;999.90;;;11.10;99.90;;;;;;4915521;29;20052;-90
2023/03/25 05:36:39;;;;;;;1999.90;999.90;;;11.10;99.90;;;;;;4887087;29;20044;-90
2023/03/25 05:39:04;;;;;;;1999.90;999.90;;;10.80;99.90;;;;;;4907829;29;20076;-90
2023/03/25 05:41:37;;;;;;;1999.90;999.90;;;9.90;99.90;;;;;;4923623;29;20052;-90
2023/03/25 05:44:07;;;;;;;1999.90;479.83;;;11.10;99.90;;;;;;4924520;29;20131;-90
2023/03/25 05:46:33;;;;;;;1999.90;999.90;;;11.80;99.90;;;;;;4926053;29;20078;-90
2023/03/25 05:49:00;;;;;;;1999.90;795.60;;;10.30;99.90;;;;;;4927435;29;20044;-90
2023/03/25 05:51:27;;;;;;;1882.05;564.45;;;11.10;99.90;;;;;;4920068;29;20063;-89
2023/03/25 05:53:53;;;;;;;1999.90;999.90;;;;;;;;;;4921928;29;20056;-92
2023/03/25 05:56:23;;;;;;;1999.90;999.90;;;11.10;99.90;;;;;;4902020;29;20335;-92
2023/03/25 05:58:50;;;;;;;1999.90;420.50;;;10.40;99.90;;;;;;4897587;29;20064;-89
2023/03/25 06:01:17;;;;;;;1999.90;425.23;;;10.20;99.90;;;;;;4901735;29;20047;-89
2023/03/25 06:03:44;;;;;;;1999.90;384.75;;;11.40;99.90;;;;;;4899612;29;20082;-93
2023/03/25 06:06:13;;;;;;;1999.90;999.90;;;10.20;99.90;;;;;;4931833;29;20080;-92
2023/03/25 06:08:40;;;;;;;1999.90;999.90;;;11.20;99.90;;;;;;4930939;29;20131;-92
2023/03/25 06:11:08;;;;;;;1999.90;999.90;;;11.00;99.90;;;;;;4870043;29;20079;-93
2023/03/25 06:13:37;;;;;;;1999.90;281.23;;;11.20;99.90;;;;;;4883689;29;20478;-94
2023/03/25 06:16:08;;;;;;;1999.90;999.90;;;11.10;99.90;;;;;;4916640;29;20051;-94
2023/03/25 06:18:37;;;;;;;1999.90;574.83;;;11.20;99.90;;;;;;4915014;29;20127;-91
2023/03/25 06:21:04;;;;;;;1999.90;999.90;;;11.40;99.90;;;;;;4911915;29;20051;-93
2023/03/25 06:23:34;;;;;;;1999.90;787.67;;;10.20;99.90;;;;;;4898760;29;20127;-92
2023/03/25 06:26:00;;;;;;;1693.28;596.45;;;11.80;99.90;;;;;;4915474;29;20474;-91
2023/03/25 06:28:26;;;;;;;1999.90;999.90;;;10.50;99.90;;;;;;4895094;29;20054;-93
2023/03/25 06:30:52;;;;;;;1999.90;999.90;;;10.90;99.90;;;;;;4911354;29;20044;-92
2023/03/25 06:33:18;;;;;;;1999.90;999.90;;;11.20;99.90;;;;;;4898649;29;20056;-92
2023/03/25 06:35:53;;;;;;;1999.90;999.90;;;10.80;99.90;;;;;;4898291;29;20048;-90
2023/03/25 06:38:22;;;;;;;1999.90;999.90;;;12.80;99.90;;;;;;4910153;29;20087;-90
2023/03/25 06:40:49;;;;;;;1569.28;130.50;;;10.90;99.90;;;;;;4906027;29;20087;-89
2023/03/25 06:43:15;;;;;;;1758.32;577.20;;;10.00;99.90;;;;;;4910777;29;20108;-90
2023/03/25 06:45:40;;;;;;;1999.90;586.13;;;11.00;99.90;;;;;;4892346;29;20048;-90
2023/03/25 06:48:07;;;;;;;1999.90;999.90;;;10.20;99.90;;;;;;4895441;29;20071;-88
2023/03/25 06:50:33;;;;;;;1999.90;999.90;;;10.40;99.90;;;;;;4909217;29;20114;-89
2023/03/25 06:52:59;;;;;;;1999.90;999.90;;;11.10;99.90;;;;;;4908849;29;20056;-88
2023/03/25 06:55:25;;;;;;;1999.90;999.90;;;11.20;99.90;;;;;;4878814;29;20051;-88
2023/03/25 06:57:55;;;;;;;1999.90;338.20;;;10.30;99.90;;;;;;4913236;29;20052;-88
2023/03/25 07:00:23;;;;;;;1999.90;999.90;;;;;;;;;;4912949;29;20060;-89
2023/03/25 07:02:49;;;;;;;1999.90;803.38;;;10.10;99.90;;;;;;4882519;29;20048;-89
2023/03/25 07:05:15;;;;;;;1999.90;999.90;;;11.10;99.90;;;;;;4911683;29;20115;-89
2023/03/25 07:07:41;;;;;;;1999.90;999.90;;;10.60;99.90;;;;;;4914408;29;20135;-89
2023/03/25 07:10:07;;;;;;;1999.90;999.90;;;10.70;99.90;;;;;;4880219;29;20169;-89
2023/03/25 07:12:34;;;;;;;1999.90;999.90;;;10.70;99.90;;;;;;4914298;29;20409;-88
2023/03/25 07:15:03;;;;;;;1999.90;309.52;;;10.80;99.90;;;;;;4896146;29;20079;-88
2023/03/25 07:17:29;;;;;;;1999.90;999.90;;;10.60;99.90;;;;;;4912947;29;20481;-88
2023/03/25 07:19:54;;;;;;;1999.90;999.90;;;10.90;99.90;;;;;;4896853;29;20091;-88
2023/03/25 07:22:20;;;;;;;1999.90;999.90;;;10.60;99.90;;;;;;4899960;29;20086;-87
2023/03/25 07:24:46;;;;;;;1999.90;999.90;;;11.10;99.90;;;;;;4899510;29;20071;-89
2023/03/25 07:27:13;;;;;;;1999.90;999.90;;;11.80;99.90;;;;;;4911547;29;20123;-89
2023/03/25 07:29:39;;;;;;;1999.90;999.90;;;;;;;;;;4898151;29;20055;-91
2023/03/25 07:32:05;;;;;;;1999.90;999.90;;;11.40;99.90;;;;;;4898388;29;20048;-89
2023/03/25 07:34:31;;;;;;;1999.90;324.75;;;12.10;99.90;;;;;;4898779;29;20054;-89
2023/03/25 07:36:58;;;;;;;1999.90;999.90;;;11.20;99.90;;;;;;4916600;29;20044;-88
2023/03/25 07:39:24;;;;;;;1999.90;607.63;;;11.00;99.90;;;;;;4915280;29;20056;-88
2023/03/25 07:41:51;;;;;;;1999.90;801.00;;;10.30;99.90;;;;;;4915511;29;20048;-89
2023/03/25 07:44:19;;;;;;;1999.90;999.90;;;10.90;99.90;;;;;;4921589;29;20060;-89
2023/03/25 07:46:46;;;;;;;1999.90;424.08;;;11.10;99.90;;;;;;4916781;29;20048;-91
2023/03/25 07:49:11;;;;;;;1999.90;332.80;;;10.10;99.90;;;;;;4908231;29;20413;-90
2023/03/25 07:51:37;;;;;;;1999.90;426.55;;;11.30;99.90;;;;;;4908822;29;20048;-90
2023/03/25 07:54:06;;;;;;;1999.90;692.38;;;;;;;;;;4910922;29;20267;-90
2023/03/25 07:56:33;;;;;;;1999.90;154.85;;;10.50;99.90;;;;;;4892972;29;20504;-88
2023/03/25 07:58:58;;;;;;;1999.90;999.90;;;11.40;99.90;;;;;;4911051;29;20044;-87
2023/03/25 08:01:24;;;;;;;1999.90;999.90;;;11.30;99.90;;;;;;4899344;29;20055;-88
2023/03/25 08:03:50;;;;;;;1999.90;999.90;;;9.50;99.90;;;;;;4895097;29;20048;-88
2023/03/25 08:06:15;;;;;;;1999.90;317.55;;;11.20;99.90;;;;;;4915325;29;20473;-88
2023/03/25 08:08:41;;;;;;;1999.90;999.90;;;11.40;99.90;;;;;;4919082;29;20048;-87
2023/03/25 08:11:07;;;;;;;1999.90;490.98;;;10.90;99.90;;;;;;4901058;29;20489;-86
2023/03/25 08:13:33;;;;;;;1999.90;999.90;;;10.60;99.90;;;;;;4909695;29;20059;-87
2023/03/25 08:15:59;;;;;;;1999.90;684.85;;;;;;;;;;4909405;29;20040;-88
2023/03/25 08:18:25;;;;;;;1999.90;999.90;;;10.30;99.90;;;;;;4911634;29;20048;-89
2023/03/25 08:20:52;;;;;;;1999.90;999.90;;;;;;;;;;4919891;29;20036;-89
2023/03/25 08:23:19;;;;;;;1999.90;240.73;;;11.30;99.90;;;;;;4902763;29;20044;-88
2023/03/25 08:25:49;;;;;;;1999.90;999.90;;;11.00;99.90;;;;;;4892779;29;20075;-88
2023/03/25 08:28:25;;;;;;;1999.90;999.90;;;11.20;99.90;;;;;;4912252;29;20040;-88
2023/03/25 08:30:55;;;;;;;1999.90;999.90;;;12.20;99.90;;;;;;4908202;29;20068;-89
2023/03/25 08:33:32;;;;;;;1999.90;999.90;;;10.60;99.90;;;;;;4898063;29;20111;-92
2023/03/25 08:36:01;;;;;;;1999.90;999.90;;;11.40;99.90;;;;;;4896305;29;20041;-88
2023/03/25 08:38:30;;;;;;;1999.90;314.08;;;11.40;99.90;;;;;;4902668;29;20811;-89
2023/03/25 08:40:57;;;;;;;1999.90;999.90;;;12.10;99.90;;;;;;4901401;29;20063;-87
2023/03/25 08:43:24;;;;;;;1999.90;864.15;;;10.80;99.90;;;;;;4913301;29;20084;-86
2023/03/25 08:45:50;;;;;;;1999.90;999.90;;;10.60;99.90;;;;;;4908733;29;20071;-88
2023/03/25 08:48:16;;;;;;;1999.90;999.90;;;11.50;99.90;;;;;;4901773;29;20505;-87
2023/03/25 08:50:42;;;;;;;1999.90;999.90;;;10.70;99.90;;;;;;4900506;29;20052;-87
2023/03/25 08:53:08;;;;;;;1999.90;999.90;;;11.00;99.90;;;;;;4914968;29;20497;-87
2023/03/25 08:55:36;;;;;;;1577.25;549.53;;;11.70;99.90;;;;;;4900583;29;20494;-87
2023/03/25 08:58:06;;;;;;;1999.90;562.58;;;11.70;99.90;;;;;;4917421;29;20047;-87
2023/03/25 09:00:34;;;;;;;1335.95;324.55;;;11.80;99.90;;;;;;4902166;29;20405;-87
2023/03/25 09:03:02;;;;;;;1999.90;999.90;;;11.10;99.90;;;;;;4899519;29;20044;-87
2023/03/25 09:05:27;;;;;;;1999.90;999.90;;;11.60;99.90;;;;;;4900662;29;20052;-85
2023/03/25 09:07:53;;;;;;;1999.90;799.95;;;11.10;99.90;;;;;;4901560;29;20052;-85
2023/03/25 09:10:19;;;;;;;1732.45;552.05;;;10.90;99.90;;;;;;4900728;29;20040;-86
2023/03/25 09:12:45;;;;;;;1997.82;782.30;;;11.10;99.90;;;;;;4899639;29;20047;-85
2023/03/25 09:15:11;;;;;;;1999.90;999.90;;;11.40;99.90;;;;;;4901314;29;20052;-87
2023/03/25 09:17:38;;;;;;;1754.20;558.75;;;11.50;99.90;;;;;;4901805;29;20051;-87
2023/03/25 09:20:07;;;;;;;1999.90;999.90;;;10.50;99.90;;;;;;4898289;29;20044;-86
2023/03/25 09:22:36;;;;;;;1999.90;999.90;;;11.70;99.90;;;;;;4900507;29;20127;-86
2023/03/25 09:25:03;;;;;;;1999.90;999.90;;;10.80;99.90;;;;;;4893447;29;20082;-88
2023/03/25 09:27:29;;;;;;;1999.90;149.77;;;10.00;99.90;;;;;;4913160;29;20055;-86
2023/03/25 09:29:55;;;;;;;1999.90;999.90;;;;;;;;;;4908219;29;20044;-90
2023/03/25 09:32:21;;;;;;;1999.90;582.88;;;11.00;99.90;;;;;;4895467;29;20485;-86
2023/03/25 09:34:47;;;;;;;1999.90;999.90;;;;;;;;;;4880851;29;20048;-85
2023/03/25 09:37:13;;;;;;;1999.90;395.23;;;11.60;99.90;;;;;;4897893;29;20064;-86
2023/03/25 09:39:39;;;;;;;1999.90;797.95;;;11.40;99.90;;;;;;4898103;29;20052;-86
2023/03/25 09:42:32;;;;;;;1999.90;999.90;;;11.40;99.90;;;;;;4898798;29;20047;-87
2023/03/25 09:45:26;;;;;;;1999.90;999.90;;;11.10;99.90;;;;;;4915301;29;20047;-87
2023/03/25 09:48:05;;;;;;;1999.90;454.88;;;11.00;99.90;;;;;;4930127;29;20083;-87
2023/03/25 09:50:33;;;;;;;1999.90;999.90;;;11.10;99.90;;;;;;4915618;29;20051;-87
2023/03/25 09:53:02;;;;;;;1999.90;171.00;;;11.30;99.90;;;;;;4914454;29;20062;-88
2023/03/25 09:55:31;;;;;;;1999.90;999.90;;;10.90;99.90;;;;;;4916150;29;20056;-87
2023/03/25 09:58:21;;;;;;;1999.90;347.25;;;11.20;99.90;;;;;;4914991;29;20055;-87
2023/03/25 10:00:55;;;;;;;1999.90;999.90;;;11.50;99.90;;;;;;4916760;29;20055;-87
2023/03/25 10:03:31;;;;;;;1999.90;999.90;;;12.20;99.90;;;;;;4916592;29;20052;-87
2023/03/25 10:06:04;;;;;;;1999.90;999.90;;;11.80;99.90;;;;;;4916520;29;20055;-88
2023/03/25 10:08:44;;;;;;;1999.90;999.90;;;12.40;99.90;;;;;;4915039;29;20537;-86
2023/03/25 10:11:28;;;;;;;1999.90;999.90;;;12.30;99.90;;;;;;4899387;29;20056;-87
2023/03/25 10:14:05;;;;;;;1999.90;999.90;;;10.70;99.90;;;;;;4899261;29;20048;-86
2023/03/25 10:16:44;;;;;;;1999.90;999.90;;;11.90;99.90;;;;;;4916479;29;20090;-86
2023/03/25 10:19:27;;;;;;;1999.90;999.90;;;11.20;99.90;;;;;;4915290;29;20040;-86
2023/03/25 10:22:36;;;;;;;1999.90;328.95;;;11.90;99.90;;;;;;4914231;29;20099;-87
2023/03/25 10:25:08;;;;;;;1999.90;999.90;;;12.20;99.90;;;;;;4858030;29;20080;-87
2023/03/25 10:27:43;;;;;;;1999.90;811.92;;;11.10;99.90;;;;;;4906416;29;20060;-86
2023/03/25 10:30:08;;;;;;;1999.90;999.90;;;12.40;99.90;;;;;;4885223;29;20143;-87
2023/03/25 10:32:45;;;;;;;1999.90;999.90;;;11.30;99.90;;;;;;4913034;29;20135;-86
2023/03/25 10:35:25;;;;;;;1999.90;640.28;;;11.90;99.90;;;;;;4914540;29;20104;-86
2023/03/25 10:37:53;;;;;;;1999.90;675.53;;;12.40;99.90;;;;;;4900487;29;20084;-86
2023/03/25 10:40:55;;;;;;;1999.90;442.00;;;11.00;99.90;;;;;;4915907;29;20058;-87
2023/03/25 10:43:32;;;;;;;1999.90;355.67;;;11.00;99.90;;;;;;4854699;29;20515;-86
2023/03/25 10:46:12;;;;;;;1999.90;999.90;;;11.00;99.90;;;;;;4915897;29;20477;-86
2023/03/25 10:48:38;;;;;;;1999.90;810.80;;;;;;;;;;4900403;29;20056;-86
2023/03/25 10:51:07;;;;;;;1999.90;999.90;;;11.20;99.90;;;;;;4897678;29;20067;-85
2023/03/25 10:53:33;;;;;;;1999.90;598.40;;;11.10;99.90;;;;;;4914832;29;20055;-86
2023/03/25 10:56:04;;;;;;;1999.90;829.90;;;11.30;99.90;;;;;;4915301;29;20051;-85
2023/03/25 10:58:31;;;;;;;1999.90;331.98;;;11.60;99.90;;;;;;4899001;29;20064;-86
2023/03/25 11:01:00;;;;;;;1999.90;284.60;;;11.60;99.90;;;;;;4914674;29;20103;-87
2023/03/25 11:03:32;;;;;;;1999.90;452.45;;;12.30;99.90;;;;;;4899012;29;20087;-87
2023/03/25 11:05:58;;;;;;;1999.90;828.20;;;10.90;99.90;;;;;;4900386;29;20111;-87
2023/03/25 11:08:24;;;;;;;1999.90;999.90;;;11.90;99.90;;;;;;4891740;29;20056;-86
2023/03/25 11:10:56;;;;;;;1999.90;679.25;;;12.00;99.90;;;;;;4896088;29;20074;-87
2023/03/25 11:13:26;;;;;;;1999.90;999.90;;;12.50;99.90;;;;;;4898942;29;20052;-86
2023/03/25 11:15:56;;;;;;;1999.90;848.17;;;11.80;99.90;;;;;;4914275;29;20047;-86
2023/03/25 11:18:33;;;;;;;1999.90;999.90;;;12.30;99.90;;;;;;4914315;29;20048;-86
2023/03/25 11:21:07;;;;;;;1999.90;520.88;;;12.10;99.90;;;;;;4915643;29;20098;-86
2023/03/25 11:23:35;;;;;;;1999.90;999.90;;;12.20;99.90;;;;;;4914858;29;20045;-87
2023/03/25 11:26:12;;;;;;;1999.90;268.80;;;11.40;99.90;;;;;;4913154;29;20382;-85
2023/03/25 11:28:42;;;;;;;1999.90;642.97;;;11.80;99.90;;;;;;4886650;29;20052;-86
2023/03/25 11:31:24;;;;;;;1999.90;627.47;;;12.10;99.90;;;;;;4900422;29;20048;-86
2023/03/25 11:34:10;;;;;;;1999.90;213.65;;;12.90;99.90;;;;;;4899960;29;20405;-85
2023/03/25 11:36:51;;;;;;;1999.90;626.05;;;12.60;99.90;;;;;;4914194;29;20044;-86
2023/03/25 11:39:34;;;;;;;1999.90;841.92;;;12.30;99.90;;;;;;4914301;29;20052;-87
2023/03/25 11:42:28;;;;;;;1999.90;999.90;;;12.90;99.90;;;;;;4915313;29;20040;-88
2023/03/25 11:44:58;;;;;;;1999.90;663.50;;;11.70;99.90;;;;;;4916489;29;20056;-87
2023/03/25 11:47:36;;;;;;;1999.90;623.40;;;11.80;99.90;;;;;;4910889;29;20075;-86
2023/03/25 11:50:04;;;;;;;1999.90;742.13;;;13.20;99.90;;;;;;4895970;29;20055;-88
2023/03/25 11:52:43;;;;;;;1999.90;719.58;;;12.70;99.90;;;;;;4895848;29;20120;-87
2023/03/25 11:55:15;;;;;;;1999.90;507.90;;;11.30;99.90;;;;;;4914758;29;20056;-89
2023/03/25 11:57:43;;;;;;;1999.90;522.42;;;11.50;99.90;;;;;;4898075;29;20119;-86
2023/03/25 12:00:24;;;;;;;1999.90;539.22;;;12.90;99.90;;;;;;4913929;29;20048;-86
2023/03/25 12:03:05;;;;;;;1999.90;751.05;;;12.60;99.90;;;;;;4914394;29;20056;-86
2023/03/25 12:05:32;;;;;;;1999.90;633.50;;;11.90;99.90;;;;;;4898319;29;20056;-87
2023/03/25 12:08:15;;;;;;;1999.90;777.22;;;11.90;99.90;;;;;;4912677;29;20080;-88
2023/03/25 12:11:05;;;;;;;1999.90;391.30;;;12.80;99.90;;;;;;4896800;29;20058;-86
2023/03/25 12:13:41;;;;;;;1999.90;709.70;;;11.30;99.90;;;;;;4898617;29;20055;-86
2023/03/25 12:16:24;;;;;;;1999.90;999.90;;;12.60;99.90;;;;;;4916083;29;20051;-86
2023/03/25 12:19:08;;;;;;;1999.90;999.90;;;13.00;99.90;;;;;;4913607;29;20063;-86
2023/03/25 12:21:56;;;;;;;1999.90;414.48;;;11.60;99.90;;;;;;4901434;29;20048;-85